sensor_id;sensor_type;location;lat;lon;timestamp;P1;durP1;ratioP1;P2;durP2;ratioP2
3121;SDS011;1571;52.524;14.104;2022-09-09T00:01:46;11.40;;;9.50;;
3121;SDS011;1571;52.524;14.104;2022-09-09T00:04:25;10.43;;;9.43;;
3121;SDS011;1571;52.524;14.104;2022-09-09T00:06:58;8.70;;;7.90;;
3121;SDS011;1571;52.524;14.104;2022-09-09T00:09:33;10.73;;;9.63;;
3121;SDS011;1571;52.524;14.104;2022-09-09T00:12:10;10.13;;;9.33;;
3121;SDS011;1571;52.524;14.104;2022-09-09T00:14:42;8.97;;;8.07;;
3121;SDS011;1571;52.524;14.104;2022-09-09T00:17:19;9.20;;;8.40;;
3121;SDS011;1571;52.524;14.104;2022-09-09T00:19:56;9.10;;;8.20;;
3121;SDS011;1571;52.524;14.104;2022-09-09T00:22:30;9.70;;;8.70;;
3121;SDS011;1571;52.524;14.104;2022-09-09T00:25:02;9.50;;;8.70;;
3121;SDS011;1571;52.524;14.104;2022-09-09T00:27:40;8.23;;;7.53;;
3121;SDS011;1571;52.524;14.104;2022-09-09T00:30:14;7.93;;;7.33;;
3121;SDS011;1571;52.524;14.104;2022-09-09T00:32:46;8.07;;;7.37;;
3121;SDS011;1571;52.524;14.104;2022-09-09T00:35:17;10.23;;;7.80;;
3121;SDS011;1571;52.524;14.104;2022-09-09T00:37:51;12.57;;;7.10;;
3121;SDS011;1571;52.524;14.104;2022-09-09T00:40:23;7.70;;;7.00;;
3121;SDS011;1571;52.524;14.104;2022-09-09T00:48:58;6.47;;;5.97;;
3121;SDS011;1571;52.524;14.104;2022-09-09T00:51:37;6.53;;;5.90;;
3121;SDS011;1571;52.524;14.104;2022-09-09T00:54:22;6.30;;;5.70;;
3121;SDS011;1571;52.524;14.104;2022-09-09T00:57:02;7.53;;;5.50;;
3121;SDS011;1571;52.524;14.104;2022-09-09T00:59:44;6.97;;;6.37;;
3121;SDS011;1571;52.524;14.104;2022-09-09T01:02:18;5.93;;;5.53;;
3121;SDS011;1571;52.524;14.104;2022-09-09T01:04:56;7.00;;;4.93;;
3121;SDS011;1571;52.524;14.104;2022-09-09T01:07:34;5.83;;;5.43;;
3121;SDS011;1571;52.524;14.104;2022-09-09T01:10:03;4.97;;;4.60;;
3121;SDS011;1571;52.524;14.104;2022-09-09T01:12:41;9.87;;;8.40;;
3121;SDS011;1571;52.524;14.104;2022-09-09T01:15:17;6.70;;;6.10;;
3121;SDS011;1571;52.524;14.104;2022-09-09T01:17:53;7.10;;;6.50;;
3121;SDS011;1571;52.524;14.104;2022-09-09T01:20:36;7.13;;;6.53;;
3121;SDS011;1571;52.524;14.104;2022-09-09T01:23:19;5.43;;;5.03;;
3121;SDS011;1571;52.524;14.104;2022-09-09T01:26:17;7.10;;;6.50;;
3121;SDS011;1571;52.524;14.104;2022-09-09T01:28:50;5.23;;;4.73;;
3121;SDS011;1571;52.524;14.104;2022-09-09T01:31:28;6.90;;;6.30;;
3121;SDS011;1571;52.524;14.104;2022-09-09T01:33:59;7.00;;;6.40;;
3121;SDS011;1571;52.524;14.104;2022-09-09T01:36:29;7.20;;;6.60;;
3121;SDS011;1571;52.524;14.104;2022-09-09T01:39:03;6.60;;;6.00;;
3121;SDS011;1571;52.524;14.104;2022-09-09T01:41:34;6.83;;;6.23;;
3121;SDS011;1571;52.524;14.104;2022-09-09T01:44:06;7.57;;;6.93;;
3121;SDS011;1571;52.524;14.104;2022-09-09T01:46:37;6.30;;;5.70;;
3121;SDS011;1571;52.524;14.104;2022-09-09T01:49:12;4.17;;;3.87;;
3121;SDS011;1571;52.524;14.104;2022-09-09T01:51:41;4.10;;;3.80;;
3121;SDS011;1571;52.524;14.104;2022-09-09T01:54:13;4.87;;;4.47;;
3121;SDS011;1571;52.524;14.104;2022-09-09T01:56:46;4.30;;;4.00;;
3121;SDS011;1571;52.524;14.104;2022-09-09T01:59:27;5.23;;;4.00;;
3121;SDS011;1571;52.524;14.104;2022-09-09T02:02:08;4.63;;;4.33;;
3121;SDS011;1571;52.524;14.104;2022-09-09T02:04:44;5.00;;;4.60;;
3121;SDS011;1571;52.524;14.104;2022-09-09T02:07:31;4.40;;;4.10;;
3121;SDS011;1571;52.524;14.104;2022-09-09T02:10:15;5.30;;;4.80;;
3121;SDS011;1571;52.524;14.104;2022-09-09T02:12:59;4.80;;;4.43;;
3121;SDS011;1571;52.524;14.104;2022-09-09T02:15:34;5.90;;;4.93;;
3121;SDS011;1571;52.524;14.104;2022-09-09T02:18:10;7.90;;;5.70;;
3121;SDS011;1571;52.524;14.104;2022-09-09T02:20:42;5.37;;;4.97;;
3121;SDS011;1571;52.524;14.104;2022-09-09T02:23:11;7.50;;;4.57;;
3121;SDS011;1571;52.524;14.104;2022-09-09T02:25:44;4.40;;;4.10;;
3121;SDS011;1571;52.524;14.104;2022-09-09T02:28:22;4.50;;;4.10;;
3121;SDS011;1571;52.524;14.104;2022-09-09T02:30:53;5.80;;;5.10;;
3121;SDS011;1571;52.524;14.104;2022-09-09T02:33:30;5.70;;;5.07;;
3121;SDS011;1571;52.524;14.104;2022-09-09T02:36:04;5.30;;;4.90;;
3121;SDS011;1571;52.524;14.104;2022-09-09T02:38:36;6.13;;;5.53;;
3121;SDS011;1571;52.524;14.104;2022-09-09T02:41:12;5.70;;;5.20;;
3121;SDS011;1571;52.524;14.104;2022-09-09T02:43:42;6.07;;;5.63;;
3121;SDS011;1571;52.524;14.104;2022-09-09T02:46:18;6.17;;;5.63;;
3121;SDS011;1571;52.524;14.104;2022-09-09T02:49:01;5.73;;;5.23;;
3121;SDS011;1571;52.524;14.104;2022-09-09T02:51:40;6.10;;;5.60;;
3121;SDS011;1571;52.524;14.104;2022-09-09T02:54:20;6.47;;;5.83;;
3121;SDS011;1571;52.524;14.104;2022-09-09T02:56:54;6.23;;;5.63;;
3121;SDS011;1571;52.524;14.104;2022-09-09T02:59:33;7.43;;;5.30;;
3121;SDS011;1571;52.524;14.104;2022-09-09T03:02:02;5.00;;;4.60;;
3121;SDS011;1571;52.524;14.104;2022-09-09T03:04:31;5.00;;;4.50;;
3121;SDS011;1571;52.524;14.104;2022-09-09T03:07:00;5.53;;;5.03;;
3121;SDS011;1571;52.524;14.104;2022-09-09T03:09:30;6.43;;;4.83;;
3121;SDS011;1571;52.524;14.104;2022-09-09T03:11:59;13.17;;;5.20;;
3121;SDS011;1571;52.524;14.104;2022-09-09T03:14:30;7.93;;;6.30;;
3121;SDS011;1571;52.524;14.104;2022-09-09T03:17:00;5.70;;;5.20;;
3121;SDS011;1571;52.524;14.104;2022-09-09T03:19:34;7.67;;;4.90;;
3121;SDS011;1571;52.524;14.104;2022-09-09T03:22:07;6.77;;;6.17;;
3121;SDS011;1571;52.524;14.104;2022-09-09T03:24:40;13.37;;;4.97;;
3121;SDS011;1571;52.524;14.104;2022-09-09T03:27:08;5.33;;;4.83;;
3121;SDS011;1571;52.524;14.104;2022-09-09T03:29:38;4.67;;;4.27;;
3121;SDS011;1571;52.524;14.104;2022-09-09T03:32:12;5.43;;;4.77;;
3121;SDS011;1571;52.524;14.104;2022-09-09T03:34:44;5.40;;;5.00;;
3121;SDS011;1571;52.524;14.104;2022-09-09T03:37:14;7.07;;;6.47;;
3121;SDS011;1571;52.524;14.104;2022-09-09T03:39:42;7.03;;;5.70;;
3121;SDS011;1571;52.524;14.104;2022-09-09T03:42:12;5.63;;;5.13;;
3121;SDS011;1571;52.524;14.104;2022-09-09T03:44:41;6.90;;;6.20;;
3121;SDS011;1571;52.524;14.104;2022-09-09T03:47:10;5.17;;;4.80;;
3121;SDS011;1571;52.524;14.104;2022-09-09T03:49:40;5.63;;;5.17;;
3121;SDS011;1571;52.524;14.104;2022-09-09T03:52:09;5.40;;;5.00;;
3121;SDS011;1571;52.524;14.104;2022-09-09T03:54:38;5.70;;;5.20;;
3121;SDS011;1571;52.524;14.104;2022-09-09T03:57:06;5.67;;;5.03;;
3121;SDS011;1571;52.524;14.104;2022-09-09T03:59:34;4.90;;;4.50;;
3121;SDS011;1571;52.524;14.104;2022-09-09T04:02:03;7.00;;;6.40;;
3121;SDS011;1571;52.524;14.104;2022-09-09T04:04:32;6.83;;;6.23;;
3121;SDS011;1571;52.524;14.104;2022-09-09T04:07:02;7.20;;;6.37;;
3121;SDS011;1571;52.524;14.104;2022-09-09T04:09:33;6.30;;;5.80;;
3121;SDS011;1571;52.524;14.104;2022-09-09T04:12:02;6.93;;;6.33;;
3121;SDS011;1571;52.524;14.104;2022-09-09T04:14:31;7.20;;;6.50;;
3121;SDS011;1571;52.524;14.104;2022-09-09T04:16:59;8.13;;;5.43;;
3121;SDS011;1571;52.524;14.104;2022-09-09T04:19:27;7.27;;;6.70;;
3121;SDS011;1571;52.524;14.104;2022-09-09T04:21:56;5.33;;;4.93;;
3121;SDS011;1571;52.524;14.104;2022-09-09T04:24:25;6.00;;;5.40;;
3121;SDS011;1571;52.524;14.104;2022-09-09T04:26:56;5.63;;;5.23;;
3121;SDS011;1571;52.524;14.104;2022-09-09T04:29:24;4.83;;;4.43;;
3121;SDS011;1571;52.524;14.104;2022-09-09T04:31:53;5.73;;;4.67;;
3121;SDS011;1571;52.524;14.104;2022-09-09T04:34:21;5.77;;;5.27;;
3121;SDS011;1571;52.524;14.104;2022-09-09T04:36:49;6.60;;;6.10;;
3121;SDS011;1571;52.524;14.104;2022-09-09T04:39:18;6.60;;;6.00;;
3121;SDS011;1571;52.524;14.104;2022-09-09T04:41:49;6.13;;;5.63;;
3121;SDS011;1571;52.524;14.104;2022-09-09T04:44:18;5.53;;;4.43;;
3121;SDS011;1571;52.524;14.104;2022-09-09T04:46:46;4.60;;;4.30;;
3121;SDS011;1571;52.524;14.104;2022-09-09T04:49:14;5.77;;;5.27;;
3121;SDS011;1571;52.524;14.104;2022-09-09T04:51:43;6.07;;;5.00;;
3121;SDS011;1571;52.524;14.104;2022-09-09T04:54:12;5.73;;;5.33;;
3121;SDS011;1571;52.524;14.104;2022-09-09T04:56:42;6.43;;;5.93;;
3121;SDS011;1571;52.524;14.104;2022-09-09T04:59:12;6.00;;;4.60;;
3121;SDS011;1571;52.524;14.104;2022-09-09T05:01:46;5.77;;;5.37;;
3121;SDS011;1571;52.524;14.104;2022-09-09T05:04:15;5.00;;;4.60;;
3121;SDS011;1571;52.524;14.104;2022-09-09T05:06:43;5.47;;;4.90;;
3121;SDS011;1571;52.524;14.104;2022-09-09T05:09:13;4.87;;;4.57;;
3121;SDS011;1571;52.524;14.104;2022-09-09T05:11:43;5.50;;;5.10;;
3121;SDS011;1571;52.524;14.104;2022-09-09T05:14:29;5.70;;;5.13;;
3121;SDS011;1571;52.524;14.104;2022-09-09T05:17:00;4.60;;;4.30;;
3121;SDS011;1571;52.524;14.104;2022-09-09T05:19:28;5.17;;;4.70;;
3121;SDS011;1571;52.524;14.104;2022-09-09T05:21:57;5.13;;;4.73;;
3121;SDS011;1571;52.524;14.104;2022-09-09T05:24:34;5.10;;;4.10;;
3121;SDS011;1571;52.524;14.104;2022-09-09T05:27:03;5.17;;;4.80;;
3121;SDS011;1571;52.524;14.104;2022-09-09T05:29:34;4.70;;;4.40;;
3121;SDS011;1571;52.524;14.104;2022-09-09T05:32:04;5.83;;;5.33;;
3121;SDS011;1571;52.524;14.104;2022-09-09T05:34:34;6.23;;;5.63;;
3121;SDS011;1571;52.524;14.104;2022-09-09T05:37:04;6.00;;;5.50;;
3121;SDS011;1571;52.524;14.104;2022-09-09T05:39:34;6.03;;;5.43;;
3121;SDS011;1571;52.524;14.104;2022-09-09T05:42:04;6.20;;;5.60;;
3121;SDS011;1571;52.524;14.104;2022-09-09T05:44:34;6.30;;;5.70;;
3121;SDS011;1571;52.524;14.104;2022-09-09T05:47:03;5.63;;;5.13;;
3121;SDS011;1571;52.524;14.104;2022-09-09T05:49:31;6.57;;;5.03;;
3121;SDS011;1571;52.524;14.104;2022-09-09T05:52:00;6.73;;;5.63;;
3121;SDS011;1571;52.524;14.104;2022-09-09T05:54:30;5.23;;;4.83;;
3121;SDS011;1571;52.524;14.104;2022-09-09T05:56:59;5.30;;;4.73;;
3121;SDS011;1571;52.524;14.104;2022-09-09T05:59:28;4.33;;;3.93;;
3121;SDS011;1571;52.524;14.104;2022-09-09T06:02:01;5.10;;;4.70;;
3121;SDS011;1571;52.524;14.104;2022-09-09T06:04:34;4.80;;;4.50;;
3121;SDS011;1571;52.524;14.104;2022-09-09T06:07:03;4.63;;;4.30;;
3121;SDS011;1571;52.524;14.104;2022-09-09T06:09:32;4.87;;;4.47;;
3121;SDS011;1571;52.524;14.104;2022-09-09T06:12:00;4.50;;;4.10;;
3121;SDS011;1571;52.524;14.104;2022-09-09T06:14:32;4.10;;;3.87;;
3121;SDS011;1571;52.524;14.104;2022-09-09T06:17:03;4.40;;;4.00;;
3121;SDS011;1571;52.524;14.104;2022-09-09T06:19:32;4.20;;;3.90;;
3121;SDS011;1571;52.524;14.104;2022-09-09T06:22:01;4.20;;;3.80;;
3121;SDS011;1571;52.524;14.104;2022-09-09T06:24:33;4.27;;;3.97;;
3121;SDS011;1571;52.524;14.104;2022-09-09T06:27:02;4.10;;;3.70;;
3121;SDS011;1571;52.524;14.104;2022-09-09T06:29:34;3.87;;;3.00;;
3121;SDS011;1571;52.524;14.104;2022-09-09T06:32:04;4.17;;;3.77;;
3121;SDS011;1571;52.524;14.104;2022-09-09T06:34:32;5.10;;;4.53;;
3121;SDS011;1571;52.524;14.104;2022-09-09T06:37:00;7.23;;;5.13;;
3121;SDS011;1571;52.524;14.104;2022-09-09T06:39:42;4.20;;;3.90;;
3121;SDS011;1571;52.524;14.104;2022-09-09T06:42:11;3.90;;;3.70;;
3121;SDS011;1571;52.524;14.104;2022-09-09T06:44:55;4.30;;;4.00;;
3121;SDS011;1571;52.524;14.104;2022-09-09T06:47:35;4.23;;;3.90;;
3121;SDS011;1571;52.524;14.104;2022-09-09T06:50:04;4.10;;;3.70;;
3121;SDS011;1571;52.524;14.104;2022-09-09T06:52:35;5.33;;;3.87;;
3121;SDS011;1571;52.524;14.104;2022-09-09T06:55:04;3.70;;;3.40;;
3121;SDS011;1571;52.524;14.104;2022-09-09T06:57:34;3.67;;;3.40;;
3121;SDS011;1571;52.524;14.104;2022-09-09T07:00:08;4.30;;;3.93;;
3121;SDS011;1571;52.524;14.104;2022-09-09T07:02:40;7.13;;;4.13;;
3121;SDS011;1571;52.524;14.104;2022-09-09T07:05:09;3.70;;;3.30;;
3121;SDS011;1571;52.524;14.104;2022-09-09T07:07:40;4.10;;;3.80;;
3121;SDS011;1571;52.524;14.104;2022-09-09T07:10:10;5.40;;;4.27;;
3121;SDS011;1571;52.524;14.104;2022-09-09T07:12:39;4.47;;;4.07;;
3121;SDS011;1571;52.524;14.104;2022-09-09T07:15:10;3.70;;;3.40;;
3121;SDS011;1571;52.524;14.104;2022-09-09T07:17:44;6.60;;;3.43;;
3121;SDS011;1571;52.524;14.104;2022-09-09T07:20:14;4.20;;;2.97;;
3121;SDS011;1571;52.524;14.104;2022-09-09T07:22:43;2.93;;;2.73;;
3121;SDS011;1571;52.524;14.104;2022-09-09T07:25:11;2.60;;;2.40;;
3121;SDS011;1571;52.524;14.104;2022-09-09T07:27:41;2.90;;;2.70;;
3121;SDS011;1571;52.524;14.104;2022-09-09T07:30:09;2.93;;;2.73;;
3121;SDS011;1571;52.524;14.104;2022-09-09T07:32:48;4.47;;;2.40;;
3121;SDS011;1571;52.524;14.104;2022-09-09T07:35:19;2.30;;;2.10;;
3121;SDS011;1571;52.524;14.104;2022-09-09T07:37:47;3.90;;;2.47;;
3121;SDS011;1571;52.524;14.104;2022-09-09T07:40:18;3.83;;;2.33;;
3121;SDS011;1571;52.524;14.104;2022-09-09T07:42:48;2.10;;;2.00;;
3121;SDS011;1571;52.524;14.104;2022-09-09T07:45:17;2.40;;;1.77;;
3121;SDS011;1571;52.524;14.104;2022-09-09T07:47:47;2.13;;;2.00;;
3121;SDS011;1571;52.524;14.104;2022-09-09T07:50:16;3.97;;;2.17;;
3121;SDS011;1571;52.524;14.104;2022-09-09T07:52:45;2.60;;;2.00;;
3121;SDS011;1571;52.524;14.104;2022-09-09T07:55:14;2.70;;;2.10;;
3121;SDS011;1571;52.524;14.104;2022-09-09T07:57:43;2.40;;;2.13;;
3121;SDS011;1571;52.524;14.104;2022-09-09T08:00:13;2.10;;;1.90;;
3121;SDS011;1571;52.524;14.104;2022-09-09T08:02:49;2.87;;;2.10;;
3121;SDS011;1571;52.524;14.104;2022-09-09T08:05:21;4.10;;;3.70;;
3121;SDS011;1571;52.524;14.104;2022-09-09T08:07:50;5.83;;;2.77;;
3121;SDS011;1571;52.524;14.104;2022-09-09T08:10:19;5.53;;;2.90;;
3121;SDS011;1571;52.524;14.104;2022-09-09T08:12:49;2.93;;;2.57;;
3121;SDS011;1571;52.524;14.104;2022-09-09T08:15:37;8.37;;;2.60;;
3121;SDS011;1571;52.524;14.104;2022-09-09T08:18:08;4.33;;;2.43;;
3121;SDS011;1571;52.524;14.104;2022-09-09T08:20:37;5.30;;;2.07;;
3121;SDS011;1571;52.524;14.104;2022-09-09T08:23:06;5.20;;;2.43;;
3121;SDS011;1571;52.524;14.104;2022-09-09T08:25:35;3.20;;;2.20;;
3121;SDS011;1571;52.524;14.104;2022-09-09T08:28:03;2.37;;;2.17;;
3121;SDS011;1571;52.524;14.104;2022-09-09T08:30:32;2.17;;;1.97;;
3121;SDS011;1571;52.524;14.104;2022-09-09T08:33:00;4.30;;;2.70;;
3121;SDS011;1571;52.524;14.104;2022-09-09T08:35:30;3.73;;;2.40;;
3121;SDS011;1571;52.524;14.104;2022-09-09T08:37:59;3.63;;;2.37;;
3121;SDS011;1571;52.524;14.104;2022-09-09T08:40:33;2.60;;;2.47;;
3121;SDS011;1571;52.524;14.104;2022-09-09T08:43:05;2.43;;;2.30;;
3121;SDS011;1571;52.524;14.104;2022-09-09T08:45:35;6.10;;;2.73;;
3121;SDS011;1571;52.524;14.104;2022-09-09T08:48:20;8.40;;;2.73;;
3121;SDS011;1571;52.524;14.104;2022-09-09T08:51:00;2.53;;;2.33;;
3121;SDS011;1571;52.524;14.104;2022-09-09T08:53:34;3.70;;;2.63;;
3121;SDS011;1571;52.524;14.104;2022-09-09T08:56:11;2.33;;;1.90;;
3121;SDS011;1571;52.524;14.104;2022-09-09T08:58:47;5.67;;;2.57;;
3121;SDS011;1571;52.524;14.104;2022-09-09T09:01:24;3.50;;;1.33;;
3121;SDS011;1571;52.524;14.104;2022-09-09T09:04:06;3.77;;;2.47;;
3121;SDS011;1571;52.524;14.104;2022-09-09T09:07:06;1.70;;;1.60;;
3121;SDS011;1571;52.524;14.104;2022-09-09T09:09:46;3.33;;;1.30;;
3121;SDS011;1571;52.524;14.104;2022-09-09T09:12:27;1.63;;;1.53;;
3121;SDS011;1571;52.524;14.104;2022-09-09T09:15:00;2.67;;;1.67;;
3121;SDS011;1571;52.524;14.104;2022-09-09T09:17:35;2.30;;;1.43;;
3121;SDS011;1571;52.524;14.104;2022-09-09T09:20:10;3.03;;;1.50;;
3121;SDS011;1571;52.524;14.104;2022-09-09T09:22:45;6.20;;;1.87;;
3121;SDS011;1571;52.524;14.104;2022-09-09T09:25:19;2.37;;;1.30;;
3121;SDS011;1571;52.524;14.104;2022-09-09T09:27:52;1.90;;;1.00;;
3121;SDS011;1571;52.524;14.104;2022-09-09T09:30:29;1.77;;;1.30;;
3121;SDS011;1571;52.524;14.104;2022-09-09T09:33:10;2.50;;;1.40;;
3121;SDS011;1571;52.524;14.104;2022-09-09T09:35:44;4.60;;;2.20;;
3121;SDS011;1571;52.524;14.104;2022-09-09T09:38:18;1.93;;;1.67;;
3121;SDS011;1571;52.524;14.104;2022-09-09T09:41:09;3.43;;;1.73;;
3121;SDS011;1571;52.524;14.104;2022-09-09T09:43:39;4.10;;;1.80;;
3121;SDS011;1571;52.524;14.104;2022-09-09T09:46:22;4.30;;;2.20;;
3121;SDS011;1571;52.524;14.104;2022-09-09T09:48:58;3.87;;;1.73;;
3121;SDS011;1571;52.524;14.104;2022-09-09T09:51:28;2.70;;;2.50;;
3121;SDS011;1571;52.524;14.104;2022-09-09T09:54:09;4.20;;;1.93;;
3121;SDS011;1571;52.524;14.104;2022-09-09T09:56:51;3.90;;;2.30;;
3121;SDS011;1571;52.524;14.104;2022-09-09T09:59:21;1.90;;;1.80;;
3121;SDS011;1571;52.524;14.104;2022-09-09T10:02:15;4.40;;;2.23;;
3121;SDS011;1571;52.524;14.104;2022-09-09T10:04:59;3.90;;;1.83;;
3121;SDS011;1571;52.524;14.104;2022-09-09T10:07:31;4.10;;;2.23;;
3121;SDS011;1571;52.524;14.104;2022-09-09T10:10:01;7.10;;;2.10;;
3121;SDS011;1571;52.524;14.104;2022-09-09T10:12:36;2.90;;;1.87;;
3121;SDS011;1571;52.524;14.104;2022-09-09T10:15:26;1.90;;;1.40;;
3121;SDS011;1571;52.524;14.104;2022-09-09T10:18:15;2.20;;;1.20;;
3121;SDS011;1571;52.524;14.104;2022-09-09T10:21:03;3.47;;;1.57;;
3121;SDS011;1571;52.524;14.104;2022-09-09T10:23:46;1.83;;;1.33;;
3121;SDS011;1571;52.524;14.104;2022-09-09T10:26:34;1.70;;;1.27;;
3121;SDS011;1571;52.524;14.104;2022-09-09T10:29:14;4.77;;;2.00;;
3121;SDS011;1571;52.524;14.104;2022-09-09T10:31:57;3.20;;;1.70;;
3121;SDS011;1571;52.524;14.104;2022-09-09T10:34:42;3.30;;;1.80;;
3121;SDS011;1571;52.524;14.104;2022-09-09T10:37:26;3.83;;;1.83;;
3121;SDS011;1571;52.524;14.104;2022-09-09T10:40:11;2.00;;;1.90;;
3121;SDS011;1571;52.524;14.104;2022-09-09T10:42:53;3.00;;;1.40;;
3121;SDS011;1571;52.524;14.104;2022-09-09T10:45:28;5.40;;;1.33;;
3121;SDS011;1571;52.524;14.104;2022-09-09T10:48:09;2.27;;;1.23;;
3121;SDS011;1571;52.524;14.104;2022-09-09T10:50:54;1.87;;;1.20;;
3121;SDS011;1571;52.524;14.104;2022-09-09T10:53:35;1.27;;;1.13;;
3121;SDS011;1571;52.524;14.104;2022-09-09T10:56:06;1.73;;;0.90;;
3121;SDS011;1571;52.524;14.104;2022-09-09T10:58:40;4.57;;;1.40;;
3121;SDS011;1571;52.524;14.104;2022-09-09T11:01:16;1.67;;;0.90;;
3121;SDS011;1571;52.524;14.104;2022-09-09T11:03:51;2.70;;;1.13;;
3121;SDS011;1571;52.524;14.104;2022-09-09T11:06:25;1.30;;;1.13;;
3121;SDS011;1571;52.524;14.104;2022-09-09T11:08:59;2.43;;;1.00;;
3121;SDS011;1571;52.524;14.104;2022-09-09T11:11:32;1.70;;;1.00;;
3121;SDS011;1571;52.524;14.104;2022-09-09T11:14:08;1.20;;;0.87;;
3121;SDS011;1571;52.524;14.104;2022-09-09T11:16:45;2.70;;;0.90;;
3121;SDS011;1571;52.524;14.104;2022-09-09T11:19:17;1.50;;;0.73;;
3121;SDS011;1571;52.524;14.104;2022-09-09T11:21:52;1.33;;;1.20;;
3121;SDS011;1571;52.524;14.104;2022-09-09T11:24:23;2.73;;;0.97;;
3121;SDS011;1571;52.524;14.104;2022-09-09T11:26:57;9.17;;;1.50;;
3121;SDS011;1571;52.524;14.104;2022-09-09T11:29:55;3.13;;;0.97;;
3121;SDS011;1571;52.524;14.104;2022-09-09T11:35:46;4.10;;;1.00;;
3121;SDS011;1571;52.524;14.104;2022-09-09T11:38:25;0.80;;;0.80;;
3121;SDS011;1571;52.524;14.104;2022-09-09T11:40:55;15.17;;;1.30;;
3121;SDS011;1571;52.524;14.104;2022-09-09T11:43:27;4.23;;;1.20;;
3121;SDS011;1571;52.524;14.104;2022-09-09T11:46:00;1.20;;;1.10;;
3121;SDS011;1571;52.524;14.104;2022-09-09T11:48:32;1.53;;;0.80;;
3121;SDS011;1571;52.524;14.104;2022-09-09T11:51:03;4.43;;;1.00;;
3121;SDS011;1571;52.524;14.104;2022-09-09T11:53:47;2.27;;;1.00;;
3121;SDS011;1571;52.524;14.104;2022-09-09T11:56:24;1.63;;;1.10;;
3121;SDS011;1571;52.524;14.104;2022-09-09T11:58:56;1.10;;;1.00;;
3121;SDS011;1571;52.524;14.104;2022-09-09T12:01:30;3.13;;;1.43;;
3121;SDS011;1571;52.524;14.104;2022-09-09T12:04:22;1.43;;;1.10;;
3121;SDS011;1571;52.524;14.104;2022-09-09T12:07:02;2.03;;;1.00;;
3121;SDS011;1571;52.524;14.104;2022-09-09T12:09:45;2.60;;;1.07;;
3121;SDS011;1571;52.524;14.104;2022-09-09T12:12:22;1.63;;;1.10;;
3121;SDS011;1571;52.524;14.104;2022-09-09T12:15:18;3.93;;;1.10;;
3121;SDS011;1571;52.524;14.104;2022-09-09T12:17:50;1.10;;;0.83;;
3121;SDS011;1571;52.524;14.104;2022-09-09T12:20:21;1.43;;;0.90;;
3121;SDS011;1571;52.524;14.104;2022-09-09T12:22:53;2.40;;;1.23;;
3121;SDS011;1571;52.524;14.104;2022-09-09T12:25:30;3.03;;;1.07;;
3121;SDS011;1571;52.524;14.104;2022-09-09T12:28:05;0.80;;;0.70;;
3121;SDS011;1571;52.524;14.104;2022-09-09T12:30:41;2.60;;;0.90;;
3121;SDS011;1571;52.524;14.104;2022-09-09T12:33:19;2.07;;;1.33;;
3121;SDS011;1571;52.524;14.104;2022-09-09T12:35:50;9.10;;;0.87;;
3121;SDS011;1571;52.524;14.104;2022-09-09T12:38:24;2.63;;;0.90;;
3121;SDS011;1571;52.524;14.104;2022-09-09T12:40:58;3.20;;;1.00;;
3121;SDS011;1571;52.524;14.104;2022-09-09T12:43:27;1.90;;;0.90;;
3121;SDS011;1571;52.524;14.104;2022-09-09T12:45:57;1.93;;;0.80;;
3121;SDS011;1571;52.524;14.104;2022-09-09T12:48:31;2.23;;;0.80;;
3121;SDS011;1571;52.524;14.104;2022-09-09T12:51:04;1.47;;;0.80;;
3121;SDS011;1571;52.524;14.104;2022-09-09T12:53:35;2.60;;;0.70;;
3121;SDS011;1571;52.524;14.104;2022-09-09T12:56:06;1.30;;;0.77;;
3121;SDS011;1571;52.524;14.104;2022-09-09T12:58:35;1.00;;;0.70;;
3121;SDS011;1571;52.524;14.104;2022-09-09T13:01:05;3.43;;;0.73;;
3121;SDS011;1571;52.524;14.104;2022-09-09T13:03:41;3.07;;;0.80;;
3121;SDS011;1571;52.524;14.104;2022-09-09T13:06:18;0.97;;;0.70;;
3121;SDS011;1571;52.524;14.104;2022-09-09T13:08:55;1.33;;;0.70;;
3121;SDS011;1571;52.524;14.104;2022-09-09T13:11:26;2.43;;;1.13;;
3121;SDS011;1571;52.524;14.104;2022-09-09T13:13:57;1.83;;;0.70;;
3121;SDS011;1571;52.524;14.104;2022-09-09T13:16:26;3.50;;;1.13;;
3121;SDS011;1571;52.524;14.104;2022-09-09T13:19:01;1.57;;;0.73;;
3121;SDS011;1571;52.524;14.104;2022-09-09T13:21:35;2.93;;;0.60;;
3121;SDS011;1571;52.524;14.104;2022-09-09T13:24:05;1.60;;;0.70;;
3121;SDS011;1571;52.524;14.104;2022-09-09T13:26:53;0.70;;;0.70;;
3121;SDS011;1571;52.524;14.104;2022-09-09T13:29:23;1.00;;;0.83;;
3121;SDS011;1571;52.524;14.104;2022-09-09T13:31:51;2.03;;;0.80;;
3121;SDS011;1571;52.524;14.104;2022-09-09T13:34:27;1.40;;;0.70;;
3121;SDS011;1571;52.524;14.104;2022-09-09T13:36:58;1.67;;;0.60;;
3121;SDS011;1571;52.524;14.104;2022-09-09T13:39:29;1.27;;;0.60;;
3121;SDS011;1571;52.524;14.104;2022-09-09T13:41:57;2.37;;;0.60;;
3121;SDS011;1571;52.524;14.104;2022-09-09T13:44:26;1.37;;;0.73;;
3121;SDS011;1571;52.524;14.104;2022-09-09T13:47:01;3.40;;;0.90;;
3121;SDS011;1571;52.524;14.104;2022-09-09T13:49:37;0.93;;;0.60;;
3121;SDS011;1571;52.524;14.104;2022-09-09T13:52:08;4.20;;;0.70;;
3121;SDS011;1571;52.524;14.104;2022-09-09T13:54:38;0.90;;;0.60;;
3121;SDS011;1571;52.524;14.104;2022-09-09T13:57:13;1.83;;;0.60;;
3121;SDS011;1571;52.524;14.104;2022-09-09T13:59:44;1.27;;;0.60;;
3121;SDS011;1571;52.524;14.104;2022-09-09T14:02:30;0.80;;;0.60;;
3121;SDS011;1571;52.524;14.104;2022-09-09T14:05:00;1.47;;;0.60;;
3121;SDS011;1571;52.524;14.104;2022-09-09T14:07:29;3.70;;;0.60;;
3121;SDS011;1571;52.524;14.104;2022-09-09T14:09:57;1.17;;;0.80;;
3121;SDS011;1571;52.524;14.104;2022-09-09T14:12:27;3.83;;;0.70;;
3121;SDS011;1571;52.524;14.104;2022-09-09T14:14:55;1.43;;;0.90;;
3121;SDS011;1571;52.524;14.104;2022-09-09T14:17:23;3.30;;;0.70;;
3121;SDS011;1571;52.524;14.104;2022-09-09T14:19:51;0.93;;;0.80;;
3121;SDS011;1571;52.524;14.104;2022-09-09T14:22:21;1.23;;;0.70;;
3121;SDS011;1571;52.524;14.104;2022-09-09T14:24:50;2.97;;;1.00;;
3121;SDS011;1571;52.524;14.104;2022-09-09T14:27:18;1.70;;;0.70;;
3121;SDS011;1571;52.524;14.104;2022-09-09T14:29:46;4.17;;;0.70;;
3121;SDS011;1571;52.524;14.104;2022-09-09T14:32:14;1.07;;;0.90;;
3121;SDS011;1571;52.524;14.104;2022-09-09T14:34:42;1.10;;;0.70;;
3121;SDS011;1571;52.524;14.104;2022-09-09T14:37:11;3.43;;;0.80;;
3121;SDS011;1571;52.524;14.104;2022-09-09T14:39:40;5.17;;;1.00;;
3121;SDS011;1571;52.524;14.104;2022-09-09T14:42:10;1.10;;;0.77;;
3121;SDS011;1571;52.524;14.104;2022-09-09T14:44:39;2.07;;;0.73;;
3121;SDS011;1571;52.524;14.104;2022-09-09T14:47:08;2.60;;;0.80;;
3121;SDS011;1571;52.524;14.104;2022-09-09T14:49:36;1.37;;;0.80;;
3121;SDS011;1571;52.524;14.104;2022-09-09T14:52:08;2.10;;;0.80;;
3121;SDS011;1571;52.524;14.104;2022-09-09T14:54:36;1.70;;;0.70;;
3121;SDS011;1571;52.524;14.104;2022-09-09T14:57:06;1.80;;;0.80;;
3121;SDS011;1571;52.524;14.104;2022-09-09T14:59:34;2.07;;;0.70;;
3121;SDS011;1571;52.524;14.104;2022-09-09T15:02:02;3.23;;;1.20;;
3121;SDS011;1571;52.524;14.104;2022-09-09T15:04:31;4.30;;;0.90;;
3121;SDS011;1571;52.524;14.104;2022-09-09T15:06:59;0.90;;;0.70;;
3121;SDS011;1571;52.524;14.104;2022-09-09T15:09:27;1.23;;;0.80;;
3121;SDS011;1571;52.524;14.104;2022-09-09T15:11:56;1.10;;;0.70;;
3121;SDS011;1571;52.524;14.104;2022-09-09T15:14:25;1.13;;;0.60;;
3121;SDS011;1571;52.524;14.104;2022-09-09T15:16:53;1.40;;;1.07;;
3121;SDS011;1571;52.524;14.104;2022-09-09T15:19:22;2.30;;;0.80;;
3121;SDS011;1571;52.524;14.104;2022-09-09T15:21:50;1.00;;;0.80;;
3121;SDS011;1571;52.524;14.104;2022-09-09T15:24:18;2.00;;;0.90;;
3121;SDS011;1571;52.524;14.104;2022-09-09T15:26:46;3.33;;;0.87;;
3121;SDS011;1571;52.524;14.104;2022-09-09T15:29:14;1.80;;;0.97;;
3121;SDS011;1571;52.524;14.104;2022-09-09T15:31:44;1.53;;;0.87;;
3121;SDS011;1571;52.524;14.104;2022-09-09T15:34:13;1.00;;;0.70;;
3121;SDS011;1571;52.524;14.104;2022-09-09T15:36:42;1.70;;;1.20;;
3121;SDS011;1571;52.524;14.104;2022-09-09T15:39:13;1.83;;;0.63;;
3121;SDS011;1571;52.524;14.104;2022-09-09T15:41:43;1.07;;;0.60;;
3121;SDS011;1571;52.524;14.104;2022-09-09T15:44:13;5.27;;;0.80;;
3121;SDS011;1571;52.524;14.104;2022-09-09T15:46:43;1.70;;;0.70;;